Time;durP1;ratioP1;P1;durP2;ratioP2;P2;SDS_P1;SDS_P2;PMS_P1;PMS_P2;Temp;Humidity;BMP_temperature;BMP_pressure;BME280_temperature;BME280_humidity;BME280_pressure;Samples;Min_cycle;Max_cycle;Signal;HPM_P1;HPM_P2
2022/09/25 00:00:20;;;;;;;1.60;1.20;;;;;;;6.44;100.00;101791.22;5115537;28;20119;-72
2022/09/25 00:02:45;;;;;;;1.85;1.08;;;;;;;6.40;100.00;101787.91;5115040;28;20035;-70
2022/09/25 00:05:10;;;;;;;1.90;1.27;;;;;;;6.36;100.00;101791.69;5115329;28;20039;-71
2022/09/25 00:07:36;;;;;;;2.08;1.20;;;;;;;6.35;100.00;101790.81;5115928;28;20471;-75
2022/09/25 00:10:02;;;;;;;3.80;1.50;;;;;;;6.39;100.00;101798.56;5118126;28;20035;-76
2022/09/25 00:12:27;;;;;;;2.78;1.35;;;;;;;6.42;100.00;101791.31;5116118;28;20055;-75
2022/09/25 00:14:52;;;;;;;3.08;1.60;;;;;;;6.40;100.00;101805.56;5115408;28;20034;-75
2022/09/25 00:17:18;;;;;;;4.18;1.50;;;;;;;6.36;100.00;101794.31;5115031;28;20039;-76
2022/09/25 00:19:49;;;;;;;3.33;1.40;;;;;;;6.31;100.00;101797.19;5114690;28;20039;-76
2022/09/25 00:22:16;;;;;;;2.78;1.70;;;;;;;6.31;100.00;101794.56;5114967;28;20115;-76
2022/09/25 00:24:41;;;;;;;3.08;1.23;;;;;;;6.32;100.00;101803.38;5114902;28;20031;-76
2022/09/25 00:27:07;;;;;;;4.43;1.60;;;;;;;6.32;100.00;101800.72;5113648;28;20032;-76
2022/09/25 00:29:35;;;;;;;4.80;1.63;;;;;;;6.32;100.00;101800.72;5115130;28;20023;-76
2022/09/25 00:32:01;;;;;;;3.00;1.50;;;;;;;6.29;100.00;101798.25;5114761;28;20114;-76
2022/09/25 00:34:26;;;;;;;2.55;1.40;;;;;;;6.29;100.00;101793.81;5114837;28;20050;-76
2022/09/25 00:36:51;;;;;;;3.50;1.40;;;;;;;6.28;100.00;101800.03;5113507;28;20031;-76
2022/09/25 00:39:17;;;;;;;1.58;1.30;;;;;;;6.26;100.00;101798.44;5114742;28;20032;-76
2022/09/25 00:41:42;;;;;;;2.00;1.42;;;;;;;6.23;100.00;101796.81;5114391;28;20039;-76
2022/09/25 00:44:55;;;;;;;6.85;1.67;;;;;;;6.20;100.00;101796.97;5114223;28;20028;-76
2022/09/25 00:47:27;;;;;;;5.25;1.30;;;;;;;6.19;100.00;101795.28;5113543;28;20077;-76
2022/09/25 00:49:54;;;;;;;3.40;1.73;;;;;;;6.23;100.00;101794.16;5114695;28;20031;-75
2022/09/25 00:52:21;;;;;;;4.55;1.70;;;;;;;6.27;100.00;101790.41;5114336;28;20123;-76
2022/09/25 00:54:52;;;;;;;3.15;1.67;;;;;;;6.34;100.00;101793.53;5113144;28;20218;-76
2022/09/25 00:57:21;;;;;;;4.75;1.60;;;;;;;6.38;100.00;101786.31;5114579;28;20023;-77
2022/09/25 00:59:53;;;;;;;3.38;1.63;;;;;;;6.39;100.00;101795.91;5113880;28;20046;-76
2022/09/25 01:02:25;;;;;;;1.75;1.30;;;;;;;6.37;100.00;101795.16;5114224;28;20024;-76
2022/09/25 01:04:51;;;;;;;4.65;1.30;;;;;;;6.34;100.00;101796.19;5113796;28;20181;-76
2022/09/25 01:07:17;;;;;;;5.20;1.65;;;;;;;6.29;100.00;101795.63;5114102;28;20494;-76
2022/09/25 01:09:45;;;;;;;4.07;1.80;;;;;;;6.27;100.00;101793.06;5114003;28;20088;-76
2022/09/25 01:12:10;;;;;;;5.00;1.90;;;;;;;6.25;100.00;101786.16;5114243;28;20039;-76
2022/09/25 01:14:37;;;;;;;3.17;1.40;;;;;;;6.22;100.00;101788.97;5114471;28;20379;-76
2022/09/25 01:17:25;;;;;;;3.17;1.50;;;;;;;6.18;100.00;101796.22;5113806;28;20447;-76
2022/09/25 01:20:06;;;;;;;3.45;1.65;;;;;;;6.22;100.00;101795.09;5113717;28;20562;-76
2022/09/25 01:22:43;;;;;;;7.55;1.75;;;;;;;6.25;100.00;101792.28;5113913;28;20028;-76
2022/09/25 01:25:40;;;;;;;3.03;1.40;;;;;;;6.23;100.00;101801.25;5113861;28;20030;-76
2022/09/25 01:28:30;;;;;;;5.88;1.77;;;;;;;6.23;100.00;101799.44;5113862;28;20038;-76
2022/09/25 01:31:10;;;;;;;3.80;1.67;;;;;;;6.23;100.00;101798.59;5113408;28;20064;-76
2022/09/25 01:33:49;;;;;;;4.43;1.40;;;;;;;6.21;100.00;101789.91;5113636;28;20039;-76
2022/09/25 01:36:24;;;;;;;4.45;1.80;;;;;;;6.23;100.00;101798.59;5113982;28;20035;-76
2022/09/25 01:38:54;;;;;;;4.32;1.55;;;;;;;6.26;100.00;101794.00;5113963;28;20464;-77
2022/09/25 01:41:37;;;;;;;2.75;1.42;;;;;;;6.26;100.00;101787.84;5113379;28;20115;-76
2022/09/25 01:44:12;;;;;;;2.90;1.30;;;;;;;6.24;100.00;101790.59;5113801;28;20023;-76
2022/09/25 01:46:45;;;;;;;5.25;1.40;;;;;;;6.25;100.00;101792.28;5113608;28;20027;-76
2022/09/25 01:49:23;;;;;;;4.70;1.60;;;;;;;6.31;100.00;101801.66;5116785;28;20084;-76
2022/09/25 01:51:52;;;;;;;8.57;1.70;;;;;;;6.48;100.00;101809.47;5117978;28;20035;-77
2022/09/25 01:54:23;;;;;;;3.47;1.70;;;;;;;6.87;100.00;101810.72;5117757;28;20087;-77
2022/09/25 01:57:04;;;;;;;8.43;2.22;;;;;;;7.16;100.00;101807.25;5117914;28;20038;-77
2022/09/25 01:59:39;;;;;;;7.50;2.05;;;;;;;7.46;100.00;101796.56;5116504;28;20027;-77
2022/09/25 02:02:08;;;;;;;7.78;1.88;;;;;;;7.66;100.00;101789.19;5117569;28;20127;-76
2022/09/25 02:04:39;;;;;;;5.78;2.00;;;;;;;7.79;100.00;101792.75;5117481;28;20080;-76
2022/09/25 02:07:10;;;;;;;4.87;1.70;;;;;;;7.82;100.00;101791.72;5117831;28;20028;-76
2022/09/25 02:09:41;;;;;;;5.53;1.98;;;;;;;7.83;100.00;101790.78;5117155;28;20164;-76
2022/09/25 02:12:13;;;;;;;8.77;2.33;;;;;;;7.82;100.00;101786.41;5117663;28;20080;-76
2022/09/25 02:14:59;;;;;;;4.90;1.70;;;;;;;7.82;100.00;101784.59;5117500;28;20475;-76
2022/09/25 02:20:31;;;;;;;3.55;1.55;;;;;;;7.80;100.00;101796.28;5118405;28;20105;-76
2022/09/25 02:23:09;;;;;;;6.65;1.80;;;;;;;7.75;100.00;101788.63;5115946;28;20130;-76
2022/09/25 02:25:41;;;;;;;6.07;1.70;;;;;;;7.69;100.00;101787.19;5116643;28;20435;-76
2022/09/25 02:28:07;;;;;;;4.60;1.80;;;;;;;7.63;100.00;101782.28;5117440;28;20107;-74
2022/09/25 02:30:33;;;;;;;3.83;1.50;;;;;;;7.60;100.00;101790.44;5115843;28;20491;-74
2022/09/25 02:32:58;;;;;;;6.55;1.80;;;;;;;7.58;100.00;101793.19;5116895;28;20027;-75
2022/09/25 02:35:27;;;;;;;2.33;1.63;;;;;;;7.62;100.00;101791.19;5117726;28;20054;-75
2022/09/25 02:37:57;;;;;;;6.22;1.90;;;;;;;7.68;100.00;101793.44;5099362;28;20027;-75
2022/09/25 02:40:55;;;;;;;7.90;2.05;;;;;;;7.77;100.00;101798.16;5117016;28;20035;-74
2022/09/25 02:43:50;;;;;;;2.63;1.42;;;;;;;7.87;100.00;101798.41;5116812;28;20069;-74
2022/09/25 02:46:41;;;;;;;6.47;1.80;;;;;;;7.97;100.00;101793.38;5116894;28;20088;-74
2022/09/25 02:49:39;;;;;;;4.73;2.03;;;;;;;8.06;100.00;101806.06;5116727;28;20069;-74
2022/09/25 02:52:10;;;;;;;5.18;1.85;;;;;;;8.11;100.00;101796.00;5117151;28;20096;-74
2022/09/25 02:54:53;;;;;;;10.88;2.30;;;;;;;8.17;100.00;101793.91;5116897;28;20031;-74
2022/09/25 02:57:30;;;;;;;6.07;2.10;;;;;;;8.23;100.00;101809.41;5116779;28;20067;-75
2022/09/25 03:00:00;;;;;;;10.98;2.30;;;;;;;8.31;100.00;101812.38;5115533;28;20042;-76
2022/09/25 03:02:27;;;;;;;10.50;2.05;;;;;;;8.41;100.00;101810.84;5116233;28;20023;-74
2022/09/25 03:04:55;;;;;;;10.18;2.53;;;;;;;8.48;100.00;101816.63;5116496;28;20070;-74
2022/09/25 03:07:20;;;;;;;7.10;2.33;;;;;;;8.57;100.00;101816.03;5116258;28;20135;-74
2022/09/25 03:09:49;;;;;;;10.60;2.63;;;;;;;8.64;100.00;101819.09;5115576;28;20055;-74
2022/09/25 03:12:15;;;;;;;9.82;2.60;;;;;;;8.69;100.00;101824.97;5116022;28;20111;-74
2022/09/25 03:14:40;;;;;;;8.85;2.50;;;;;;;8.72;100.00;101827.41;5116080;28;20118;-73
2022/09/25 03:17:08;;;;;;;7.00;2.20;;;;;;;8.76;100.00;101823.59;5116014;28;20039;-74
2022/09/25 03:19:33;;;;;;;5.07;2.17;;;;;;;8.77;100.00;101821.78;5116378;28;20144;-74
2022/09/25 03:22:00;;;;;;;6.80;2.40;;;;;;;8.77;100.00;101819.97;5115817;28;20087;-75
2022/09/25 03:24:26;;;;;;;9.20;2.45;;;;;;;8.79;100.00;101819.88;5115987;28;20062;-74
2022/09/25 03:26:52;;;;;;;6.53;2.20;;;;;;;8.79;100.00;101823.41;5116169;28;20111;-74
2022/09/25 03:29:19;;;;;;;7.93;2.17;;;;;;;8.78;100.00;101815.53;5115780;28;20036;-74
2022/09/25 03:31:45;;;;;;;4.22;2.13;;;;;;;8.79;100.00;101814.56;5115762;28;20024;-74
2022/09/25 03:34:13;;;;;;;6.57;2.17;;;;;;;8.76;100.00;101805.03;5115623;28;20031;-75
2022/09/25 03:36:39;;;;;;;9.35;2.28;;;;;;;8.70;100.00;101808.06;5115689;28;20034;-75
2022/09/25 03:39:05;;;;;;;5.85;1.75;;;;;;;8.64;100.00;101805.84;5115394;28;20482;-75
2022/09/25 03:41:33;;;;;;;5.28;2.10;;;;;;;8.60;100.00;101799.91;5115580;28;20031;-74
2022/09/25 03:43:59;;;;;;;6.60;2.13;;;;;;;8.60;100.00;101791.94;5115679;28;20073;-74
2022/09/25 03:46:27;;;;;;;7.05;2.45;;;;;;;8.59;100.00;101790.22;5115198;28;20103;-74
2022/09/25 03:48:53;;;;;;;9.30;2.08;;;;;;;8.58;100.00;101790.34;5115482;28;20503;-74
2022/09/25 03:51:19;;;;;;;7.70;2.40;;;;;;;8.56;100.00;101789.59;5115348;28;20054;-74
2022/09/25 03:53:46;;;;;;;7.55;2.10;;;;;;;8.53;100.00;101795.09;5097237;28;20050;-74
2022/09/25 03:56:19;;;;;;;6.22;1.90;;;;;;;8.52;100.00;101793.41;5113921;28;20369;-74
2022/09/25 03:58:45;;;;;;;2.90;1.60;;;;;;;8.48;100.00;101787.47;5115283;28;20460;-74
2022/09/25 04:01:11;;;;;;;6.30;1.90;;;;;;;8.43;100.00;101778.91;5115677;28;20206;-75
2022/09/25 04:03:38;;;;;;;3.38;1.90;;;;;;;8.37;100.00;101781.97;5114587;28;20126;-74
2022/09/25 04:06:05;;;;;;;3.35;1.70;;;;;;;8.30;100.00;101787.69;5115041;28;20024;-75
2022/09/25 04:08:31;;;;;;;5.90;1.73;;;;;;;8.24;100.00;101787.22;5115073;28;20032;-75
2022/09/25 04:10:58;;;;;;;6.10;1.80;;;;;;;8.19;100.00;101787.53;5115333;28;20028;-74
2022/09/25 04:13:32;;;;;;;4.38;2.00;;;;;;;8.09;100.00;101784.66;5116424;28;20387;-74
2022/09/25 04:16:00;;;;;;;4.95;1.90;;;;;;;8.00;100.00;101779.06;5115647;28;20120;-74
2022/09/25 04:18:27;;;;;;;5.78;1.80;;;;;;;7.89;100.00;101785.06;5114818;28;20050;-75
2022/09/25 04:20:53;;;;;;;6.80;1.83;;;;;;;7.76;100.00;101772.63;5114775;28;20031;-75
2022/09/25 04:23:19;;;;;;;6.35;1.90;;;;;;;7.67;100.00;101775.00;5115365;28;20111;-75
2022/09/25 04:25:44;;;;;;;4.43;1.90;;;;;;;7.59;100.00;101771.03;5114976;28;20031;-74
2022/09/25 04:28:10;;;;;;;4.95;1.80;;;;;;;7.52;100.00;101756.47;5114486;28;20077;-74
2022/09/25 04:30:35;;;;;;;8.15;2.10;;;;;;;7.47;100.00;101768.31;5114271;28;20391;-73
2022/09/25 04:35:45;;;;;;;3.08;1.60;;;;;;;7.31;100.00;101758.66;5114545;28;20073;-74
2022/09/25 04:38:10;;;;;;;2.85;1.77;;;;;;;7.29;100.00;101762.38;5096482;28;20218;-73
2022/09/25 04:40:36;;;;;;;4.38;2.13;;;;;;;7.29;100.00;101760.56;5113221;28;20084;-73
2022/09/25 04:43:04;;;;;;;3.30;2.03;;;;;;;7.34;100.00;101758.47;5114422;28;20471;-73
2022/09/25 04:45:33;;;;;;;6.47;1.98;;;;;;;7.38;100.00;101765.28;5114199;28;20028;-74
2022/09/25 04:47:59;;;;;;;5.65;2.10;;;;;;;7.45;100.00;101773.72;5113977;28;20031;-73
2022/09/25 04:50:26;;;;;;;4.93;2.13;;;;;;;7.53;100.00;101770.56;5114397;28;20371;-74
2022/09/25 04:52:52;;;;;;;4.63;2.28;;;;;;;7.62;100.00;101766.50;5113915;28;20031;-74
2022/09/25 04:55:19;;;;;;;5.68;2.00;;;;;;;7.69;100.00;101765.16;5114198;28;20034;-74
2022/09/25 04:57:44;;;;;;;3.58;2.00;;;;;;;7.75;100.00;101765.59;5114132;28;20032;-74
2022/09/25 05:00:10;;;;;;;4.47;2.47;;;;;;;7.82;100.00;101760.75;5113883;28;20028;-74
2022/09/25 05:02:37;;;;;;;4.95;2.05;;;;;;;7.89;100.00;101761.22;5114594;28;20035;-73
2022/09/25 05:05:02;;;;;;;7.60;2.38;;;;;;;7.97;100.00;101766.03;5114395;28;20032;-73
2022/09/25 05:07:28;;;;;;;2.50;2.00;;;;;;;8.01;100.00;101760.41;5114088;28;20498;-74
2022/09/25 05:09:53;;;;;;;3.22;1.88;;;;;;;8.03;100.00;101763.84;5114099;28;20039;-74
2022/09/25 05:12:19;;;;;;;5.15;1.60;;;;;;;8.05;100.00;101759.28;5112557;28;20387;-74
2022/09/25 05:14:44;;;;;;;3.20;1.90;;;;;;;8.06;100.00;101758.34;5113803;28;20440;-73
2022/09/25 05:17:10;;;;;;;6.50;1.80;;;;;;;8.05;100.00;101764.59;5113947;28;20066;-73
2022/09/25 05:19:36;;;;;;;4.45;1.80;;;;;;;8.03;100.00;101762.97;5113880;28;20058;-74
2022/09/25 05:22:01;;;;;;;5.30;2.00;;;;;;;7.98;100.00;101760.63;5113427;28;20044;-74
2022/09/25 05:24:27;;;;;;;3.88;1.77;;;;;;;7.92;100.00;101756.56;5113465;28;20027;-74
2022/09/25 05:26:52;;;;;;;3.05;1.75;;;;;;;7.83;100.00;101753.69;5113707;28;20035;-74
2022/09/25 05:29:17;;;;;;;3.65;1.60;;;;;;;7.74;100.00;101757.75;5113345;28;20032;-74
2022/09/25 05:31:45;;;;;;;4.88;2.00;;;;;;;7.66;100.00;101755.59;5112316;28;20031;-74
2022/09/25 05:34:12;;;;;;;3.95;2.08;;;;;;;7.64;100.00;101752.19;5114021;28;20096;-73
2022/09/25 05:36:38;;;;;;;2.30;1.90;;;;;;;7.61;100.00;101755.03;5113197;28;20028;-74
2022/09/25 05:39:03;;;;;;;4.00;1.95;;;;;;;7.58;100.00;101763.19;5113231;28;20032;-74
2022/09/25 05:41:30;;;;;;;5.78;2.30;;;;;;;7.61;100.00;101762.97;5113378;28;20039;-73
2022/09/25 05:43:56;;;;;;;5.53;2.38;;;;;;;7.69;100.00;101759.88;5113501;28;20080;-73
2022/09/25 05:46:21;;;;;;;4.60;2.28;;;;;;;7.80;100.00;101762.66;5114086;28;20028;-74
2022/09/25 05:48:47;;;;;;;4.60;2.60;;;;;;;7.86;100.00;101767.56;5113282;28;20394;-74
2022/09/25 05:51:12;;;;;;;4.53;2.30;;;;;;;7.95;100.00;101772.25;5113375;28;20585;-73
2022/09/25 05:53:37;;;;;;;5.07;3.00;;;;;;;8.10;100.00;101774.88;5113010;28;20032;-74
2022/09/25 05:56:04;;;;;;;6.05;2.20;;;;;;;8.25;100.00;101784.47;5113325;28;20114;-73
2022/09/25 05:58:32;;;;;;;8.27;2.67;;;;;;;8.40;100.00;101795.88;5113604;28;20027;-73
2022/09/25 06:01:02;;;;;;;11.55;3.40;;;;;;;8.52;100.00;101788.94;5114001;28;20068;-73
2022/09/25 06:03:28;;;;;;;7.50;1.98;;;;;;;8.58;100.00;101790.34;5113442;28;20055;-74
2022/09/25 06:05:55;;;;;;;8.88;2.10;;;;;;;8.62;100.00;101795.31;5112145;28;20063;-76
2022/09/25 06:08:21;;;;;;;6.07;1.98;;;;;;;8.62;100.00;101776.75;5113315;28;20032;-76
2022/09/25 06:10:52;;;;;;;5.75;1.85;;;;;;;8.63;100.00;101788.25;5114212;28;20474;-75
2022/09/25 06:13:18;;;;;;;7.82;2.33;;;;;;;8.64;100.00;101784.59;5113955;28;20106;-76
2022/09/25 06:15:43;;;;;;;4.68;1.58;;;;;;;8.67;100.00;101779.09;5113563;28;20062;-76
2022/09/25 06:18:08;;;;;;;7.10;1.90;;;;;;;8.69;100.00;101777.22;5113587;28;20527;-76
2022/09/25 06:20:35;;;;;;;8.20;1.83;;;;;;;8.72;100.00;101774.34;5112804;28;20399;-76
2022/09/25 06:23:00;;;;;;;4.20;2.13;;;;;;;8.78;100.00;101773.91;5113266;28;20084;-76
2022/09/25 06:25:29;;;;;;;2.40;1.60;;;;;;;8.83;100.00;101770.94;5111926;28;20032;-76
2022/09/25 06:27:55;;;;;;;3.97;1.80;;;;;;;8.88;100.00;101778.59;5113691;28;20430;-76
2022/09/25 06:30:22;;;;;;;4.50;2.10;;;;;;;8.91;100.00;101779.25;5113718;28;20063;-77
2022/09/25 06:32:49;;;;;;;7.65;2.00;;;;;;;8.98;100.00;101782.31;5112166;28;20035;-76
2022/09/25 06:35:15;;;;;;;9.77;2.35;;;;;;;9.02;100.00;101783.81;5116127;28;20031;-77
2022/09/25 06:37:40;;;;;;;6.78;2.28;;;;;;;9.07;100.00;101781.69;5116911;28;20160;-76
2022/09/25 06:40:07;;;;;;;9.38;2.03;;;;;;;9.12;100.00;101779.56;5115450;28;20034;-76
2022/09/25 06:42:34;;;;;;;7.57;2.30;;;;;;;9.20;100.00;101784.34;5117056;28;20475;-76
2022/09/25 06:45:00;;;;;;;6.53;2.33;;;;;;;9.27;100.00;101779.44;5116849;28;20032;-76
2022/09/25 06:47:25;;;;;;;10.52;2.53;;;;;;;9.31;100.00;101778.28;5116735;28;20038;-77
2022/09/25 06:49:51;;;;;;;5.05;1.95;;;;;;;9.35;100.00;101779.75;5116841;28;20488;-76
2022/09/25 06:52:16;;;;;;;6.90;2.22;;;;;;;9.40;100.00;101782.09;5116612;28;20031;-76
2022/09/25 06:54:42;;;;;;;5.72;2.28;;;;;;;9.44;100.00;101772.97;5116600;28;20035;-76
2022/09/25 06:57:08;;;;;;;6.28;2.10;;;;;;;9.49;100.00;101766.38;5116273;28;20027;-76
2022/09/25 06:59:34;;;;;;;7.72;2.65;;;;;;;9.59;100.00;101773.66;5117191;28;20360;-76
2022/09/25 07:03:43;;;;;;;6.57;2.22;;;;;;;9.70;100.00;101781.69;5116471;28;20023;-76
2022/09/25 07:04:45;;;;;;;6.63;2.33;;;;;;;9.81;100.00;101772.97;5116494;28;20040;-77
2022/09/25 07:07:10;;;;;;;4.97;2.40;;;;;;;9.92;100.00;101783.66;5114997;28;20058;-76
2022/09/25 07:09:36;;;;;;;7.05;2.50;;;;;;;10.01;100.00;101776.81;5116290;28;20024;-76
2022/09/25 07:12:01;;;;;;;4.28;1.90;;;;;;;10.07;100.00;101771.88;5116666;28;20031;-75
2022/09/25 07:14:26;;;;;;;12.07;3.08;;;;;;;10.13;100.00;101772.41;5116587;28;20107;-75
2022/09/25 07:16:52;;;;;;;9.00;2.40;;;;;;;10.20;100.00;101771.00;5115979;28;20034;-75
2022/09/25 07:19:17;;;;;;;7.80;2.47;;;;;;;10.29;100.00;101775.63;5116234;28;20054;-75
2022/09/25 07:21:43;;;;;;;5.57;2.00;;;;;;;10.39;100.00;101779.34;5116184;28;20031;-75
2022/09/25 07:24:09;;;;;;;12.10;2.10;;;;;;;10.50;100.00;101786.50;5116997;28;20059;-75
2022/09/25 07:26:34;;;;;;;10.85;2.33;;;;;;;10.56;100.00;101790.53;5115766;28;20382;-75
2022/09/25 07:29:05;;;;;;;7.88;2.22;;;;;;;10.66;100.00;101793.31;5115861;28;20467;-74
2022/09/25 07:31:33;;;;;;;5.80;1.75;;;;;;;10.73;100.00;101786.56;5115870;28;20432;-74
2022/09/25 07:34:01;;;;;;;6.07;1.83;;;;;;;10.86;100.00;101795.31;5115450;28;20387;-74
2022/09/25 07:36:27;;;;;;;5.00;2.00;;;;;;;11.00;100.00;101788.97;5114212;28;20040;-75
2022/09/25 07:38:53;;;;;;;8.82;2.10;;;;;;;11.16;100.00;101783.25;5115883;28;20028;-75
2022/09/25 07:41:21;;;;;;;8.35;2.00;;;;;;;11.29;100.00;101781.34;5113993;28;20378;-76
2022/09/25 07:43:55;;;;;;;3.17;1.58;;;;;;;11.41;100.00;101784.84;5115240;28;20154;-78
2022/09/25 07:46:21;;;;;;;12.27;1.98;;;;;;;11.51;100.00;101782.31;5114786;28;20024;-75
2022/09/25 07:48:50;;;;;;;6.75;1.45;;;;;;;11.62;100.00;101779.63;5115210;28;20024;-75
2022/09/25 07:51:16;;;;;;;6.45;1.42;;;;;;;11.82;100.00;101778.03;5115452;28;20383;-73
2022/09/25 07:53:42;;;;;;;4.95;1.55;;;;;;;12.07;100.00;101783.22;5115063;28;20047;-73
2022/09/25 07:56:09;;;;;;;6.30;1.45;;;;;;;12.34;100.00;101786.25;5115596;28;20031;-74
2022/09/25 07:58:35;;;;;;;9.18;1.40;;;;;;;12.66;100.00;101784.56;5114987;28;20100;-75
2022/09/25 08:01:02;;;;;;;4.45;1.30;;;;;;;12.97;100.00;101779.25;5113803;28;20036;-75
2022/09/25 08:03:30;;;;;;;6.40;1.40;;;;;;;13.44;100.00;101776.97;5114863;28;20070;-73
2022/09/25 08:06:01;;;;;;;4.25;1.25;;;;;;;13.97;100.00;101777.69;5115331;28;20032;-75
2022/09/25 08:08:27;;;;;;;6.50;1.20;;;;;;;14.45;100.00;101782.19;5114470;28;20024;-74
2022/09/25 08:10:58;;;;;;;6.40;1.10;;;;;;;14.51;100.00;101779.00;5114408;28;20034;-74
2022/09/25 08:13:24;;;;;;;9.73;1.17;;;;;;;14.39;100.00;101780.09;5115209;28;20107;-73
2022/09/25 08:15:50;;;;;;;3.58;1.00;;;;;;;14.16;100.00;101784.88;5114274;28;20424;-73
2022/09/25 08:18:16;;;;;;;4.18;1.30;;;;;;;13.99;100.00;101784.59;5114976;28;20134;-73
2022/09/25 08:20:41;;;;;;;6.13;1.70;;;;;;;13.87;100.00;101780.34;5115031;28;20075;-74
2022/09/25 08:23:07;;;;;;;2.92;1.30;;;;;;;13.81;100.00;101783.56;5113352;28;20054;-75
2022/09/25 08:25:32;;;;;;;3.85;1.17;;;;;;;13.78;100.00;101775.81;5113165;28;20028;-74
2022/09/25 08:27:58;;;;;;;3.85;1.10;;;;;;;13.78;100.00;101778.47;5114414;28;20039;-74
2022/09/25 08:30:23;;;;;;;4.07;1.85;;;;;;;13.76;100.00;101781.28;5115228;28;20042;-72
2022/09/25 08:32:51;;;;;;;6.18;1.42;;;;;;;13.76;100.00;101775.94;5114234;28;20088;-73
2022/09/25 08:35:17;;;;;;;3.83;1.23;;;;;;;13.77;100.00;101776.81;5114135;28;20399;-73
2022/09/25 08:37:43;;;;;;;5.47;1.00;;;;;;;13.81;100.00;101775.53;5114580;28;20038;-75
2022/09/25 08:40:17;;;;;;;6.40;1.70;;;;;;;13.95;100.00;101777.81;5115197;28;20045;-75
2022/09/25 08:42:44;;;;;;;6.70;1.33;;;;;;;14.13;100.00;101771.78;5114654;28;20028;-75
2022/09/25 08:51:04;;;;;;;7.60;1.67;;;;;;;15.01;100.00;101769.06;5114616;28;20051;-75
2022/09/25 08:53:31;;;;;;;3.15;1.13;;;;;;;15.58;100.00;101763.59;5114053;28;20114;-75
2022/09/25 08:56:13;;;;;;;11.07;1.55;;;;;;;15.93;100.00;101768.22;5113475;28;20032;-76
2022/09/25 08:58:41;;;;;;;3.47;1.30;;;;;;;16.05;100.00;101760.78;5112878;28;20032;-76
2022/09/25 09:01:11;;;;;;;8.30;1.10;;;;;;;16.11;100.00;101776.28;5113786;28;20520;-76
2022/09/25 09:03:45;;;;;;;3.03;1.02;;;;;;;17.24;98.53;101772.94;5113971;28;20059;-77
2022/09/25 09:06:14;;;;;;;4.75;1.10;;;;;;;18.58;89.35;101761.31;5113116;28;20441;-72
2022/09/25 09:08:42;;;;;;;8.63;1.50;;;;;;;19.24;80.29;101761.19;5114033;28;20065;-69
2022/09/25 09:11:17;;;;;;;5.57;1.38;;;;;;;20.01;81.31;101757.81;5114003;28;20042;-70
2022/09/25 09:13:50;;;;;;;3.88;1.35;;;;;;;21.40;71.16;101768.34;5114097;28;20035;-71
2022/09/25 09:16:21;;;;;;;10.23;1.50;;;;;;;22.37;60.21;101760.91;5114364;28;20534;-69
2022/09/25 09:18:47;;;;;;;4.53;1.10;;;;;;;23.02;55.57;101758.88;5113299;28;20051;-71
2022/09/25 09:21:21;;;;;;;5.47;1.15;;;;;;;23.19;53.75;101756.69;5114021;28;20383;-70
2022/09/25 09:24:05;;;;;;;3.78;1.35;;;;;;;23.36;50.76;101753.66;5114568;28;20028;-72
2022/09/25 09:26:54;;;;;;;2.83;1.17;;;;;;;23.19;47.92;101759.41;5114429;28;20027;-73
2022/09/25 09:29:32;;;;;;;7.85;1.67;;;;;;;23.23;53.42;101757.97;5113245;28;20027;-74
2022/09/25 09:32:24;;;;;;;4.32;1.30;;;;;;;23.37;49.83;101764.31;5114025;28;20039;-73
2022/09/25 09:35:06;;;;;;;3.67;1.30;;;;;;;22.14;51.11;101764.63;5113570;28;20135;-75
2022/09/25 09:37:42;;;;;;;4.80;1.40;;;;;;;20.87;59.88;101776.56;5113668;28;20103;-76
2022/09/25 09:40:46;;;;;;;6.10;1.48;;;;;;;19.66;59.39;101762.72;5113441;28;20079;-75
2022/09/25 09:43:30;;;;;;;3.92;1.10;;;;;;;18.88;67.41;101772.44;5112826;28;20024;-74
2022/09/25 09:46:01;;;;;;;1.33;0.80;;;;;;;18.81;64.89;101768.69;5112375;28;20031;-76
2022/09/25 09:48:31;;;;;;;;;;;;;;;19.03;66.67;101765.34;5114444;28;20028;-75
2022/09/25 09:51:10;;;;;;;3.70;1.20;;;;;;;19.16;63.61;101767.47;5112247;28;19921;-76
2022/09/25 09:53:36;;;;;;;7.22;1.40;;;;;;;18.62;67.18;101767.22;5113608;28;20059;-75
2022/09/25 09:56:10;;;;;;;3.55;0.93;;;;;;;17.98;70.11;101766.00;5113490;28;20038;-75
2022/09/25 09:58:55;;;;;;;7.75;1.13;;;;;;;17.61;71.29;101764.50;5113581;28;20034;-75
2022/09/25 10:01:25;;;;;;;4.50;1.17;;;;;;;17.28;76.49;101767.06;5111226;28;20494;-76
2022/09/25 10:04:04;;;;;;;4.63;1.20;;;;;;;16.92;74.32;101764.53;5112007;28;20051;-80
2022/09/25 10:06:34;;;;;;;7.13;1.10;;;;;;;16.43;80.22;101758.78;5113683;28;20031;-75
2022/09/25 10:09:00;;;;;;;4.40;1.15;;;;;;;16.06;80.64;101758.94;5115240;28;20036;-77
2022/09/25 10:11:27;;;;;;;5.85;1.05;;;;;;;15.63;82.44;101756.78;5117516;28;20043;-70
2022/09/25 10:13:58;;;;;;;7.95;1.35;;;;;;;15.43;88.06;101758.72;5117303;28;20055;-72
2022/09/25 10:16:25;;;;;;;2.70;0.82;;;;;;;15.26;89.81;101760.34;5117274;28;20130;-71
2022/09/25 10:18:53;;;;;;;2.25;0.93;;;;;;;15.21;87.71;101761.78;5117278;28;20064;-72
2022/09/25 10:21:21;;;;;;;5.03;1.10;;;;;;;15.44;87.80;101755.06;5117180;28;20027;-72
2022/09/25 10:23:51;;;;;;;3.55;1.10;;;;;;;15.86;84.90;101764.44;5117278;28;20062;-72
2022/09/25 10:26:30;;;;;;;2.70;0.80;;;;;;;16.33;80.29;101758.88;5117703;28;20062;-73
2022/09/25 10:28:58;;;;;;;6.47;0.85;;;;;;;16.68;81.73;101761.66;5117327;28;20026;-73
2022/09/25 10:31:29;;;;;;;2.10;1.00;;;;;;;16.98;74.49;101755.00;5117090;28;20027;-72
2022/09/25 10:33:57;;;;;;;3.50;0.80;;;;;;;17.78;68.47;101746.59;5117076;28;20027;-75
2022/09/25 10:36:41;;;;;;;3.53;1.08;;;;;;;19.00;67.06;101746.81;5117283;28;20494;-73
2022/09/25 10:39:25;;;;;;;1.15;0.73;;;;;;;19.11;64.05;101737.50;5117283;28;20027;-73
2022/09/25 10:41:50;;;;;;;4.05;0.90;;;;;;;19.19;68.14;101742.84;5115556;28;20204;-75
2022/09/25 10:44:40;;;;;;;2.20;0.70;;;;;;;18.74;64.70;101738.91;5117277;28;20028;-75
2022/09/25 10:50:13;;;;;;;2.50;0.65;;;;;;;16.98;66.34;101746.09;5116518;28;20047;-74
2022/09/25 10:52:52;;;;;;;3.10;0.93;;;;;;;16.54;73.90;101738.88;5117110;28;20062;-74
2022/09/25 10:55:31;;;;;;;4.03;0.70;;;;;;;16.34;80.62;101740.91;5117012;28;20081;-71
2022/09/25 10:58:15;;;;;;;5.03;0.95;;;;;;;16.22;79.41;101735.75;5116569;28;20035;-71
2022/09/25 11:00:50;;;;;;;4.38;0.82;;;;;;;16.18;79.51;101731.72;5117341;28;20041;-73
2022/09/25 11:03:44;;;;;;;4.20;1.13;;;;;;;16.24;80.84;101730.25;5116359;28;20052;-73
2022/09/25 11:06:19;;;;;;;3.78;1.00;;;;;;;16.55;79.97;101736.03;5116632;28;20034;-72
2022/09/25 11:08:48;;;;;;;3.47;1.00;;;;;;;16.90;76.09;101728.91;5117188;28;20031;-72
2022/09/25 11:11:25;;;;;;;2.83;0.95;;;;;;;17.18;75.98;101731.41;5115953;28;20028;-72
2022/09/25 11:14:02;;;;;;;2.65;0.93;;;;;;;17.38;77.68;101720.41;5115734;28;20063;-72
2022/09/25 11:16:46;;;;;;;2.20;0.80;;;;;;;17.75;76.33;101716.44;5116414;28;20028;-72
2022/09/25 11:19:27;;;;;;;4.75;0.80;;;;;;;17.55;68.71;101716.75;5116083;28;20084;-73
2022/09/25 11:22:08;;;;;;;3.17;0.80;;;;;;;17.48;70.48;101722.94;5114131;28;20032;-72
2022/09/25 11:24:52;;;;;;;2.80;0.93;;;;;;;17.31;69.41;101708.59;5116092;28;20030;-71
2022/09/25 11:27:24;;;;;;;1.95;0.57;;;;;;;17.18;68.31;101707.22;5116303;28;20032;-72
2022/09/25 11:30:18;;;;;;;1.85;0.68;;;;;;;17.31;66.68;101705.91;5116376;28;20030;-74
2022/09/25 11:32:59;;;;;;;2.17;0.55;;;;;;;17.50;66.29;101711.03;5116392;28;20027;-71
2022/09/25 11:35:46;;;;;;;2.03;0.82;;;;;;;17.55;64.36;101702.47;5115809;28;20065;-74
2022/09/25 11:41:10;;;;;;;1.50;0.80;;;;;;;17.42;63.64;101701.09;5116076;28;20074;-74
2022/09/25 11:41:15;;;;;;;5.47;1.00;;;;;;;17.10;67.20;101710.69;5116068;28;20127;-71
2022/09/25 11:44:05;;;;;;;2.92;0.60;;;;;;;16.87;67.18;101709.59;5114874;28;20379;-73
2022/09/25 11:46:52;;;;;;;1.20;0.40;;;;;;;16.93;67.88;101708.94;5114783;28;20031;-72
2022/09/25 11:49:30;;;;;;;3.30;0.75;;;;;;;17.02;68.77;101710.66;5115476;28;20020;-73
2022/09/25 11:52:05;;;;;;;1.75;0.40;;;;;;;16.85;62.74;101707.00;5116324;28;20036;-74
2022/09/25 11:54:53;;;;;;;0.40;0.40;;;;;;;16.74;69.17;101697.38;5116249;28;20103;-72